createdAt,value
2022-10-08T00:02:54.195Z,1018.57
2022-10-08T00:12:31.835Z,1018.57
2022-10-08T00:22:09.216Z,1018.56
2022-10-08T00:31:46.617Z,1018.55
2022-10-08T00:41:23.667Z,1018.46
2022-10-08T00:51:00.582Z,1018.5
2022-10-08T01:00:37.706Z,1018.42
2022-10-08T01:10:14.960Z,1018.27
2022-10-08T01:19:51.644Z,1018.25
2022-10-08T01:29:28.449Z,1018.19
2022-10-08T01:39:05.234Z,1018.25
2022-10-08T01:48:41.973Z,1018.19
2022-10-08T01:58:19.133Z,1018.17
2022-10-08T02:07:56.166Z,1018.16
2022-10-08T02:17:33.737Z,1018.13
2022-10-08T02:27:10.613Z,1018.09
2022-10-08T02:46:25.325Z,1018.26
2022-10-08T03:05:39.708Z,1018.26
2022-10-08T03:15:17.280Z,1018.29
2022-10-08T03:24:56.663Z,1018.41
2022-10-08T03:34:30.468Z,1018.45
2022-10-08T03:44:07.382Z,1018.46
2022-10-08T03:53:44.485Z,1018.49
2022-10-08T04:03:21.145Z,1018.63
2022-10-08T04:12:57.775Z,1018.64
2022-10-08T04:22:34.667Z,1018.56
2022-10-08T04:32:11.648Z,1018.6
2022-10-08T04:41:48.630Z,1018.77
2022-10-08T04:51:25.737Z,1018.72
2022-10-08T05:01:03.061Z,1018.77
2022-10-08T05:10:40.210Z,1018.82
2022-10-08T05:20:16.922Z,1018.83
2022-10-08T05:29:53.977Z,1019.01
2022-10-08T05:39:30.256Z,1019.12
2022-10-08T05:49:07.708Z,1019.15
2022-10-08T05:58:44.965Z,1019.3
2022-10-08T06:08:22.542Z,1019.34
2022-10-08T06:17:59.830Z,1019.5
2022-10-08T06:27:37.215Z,1019.59
2022-10-08T06:37:15.020Z,1019.6
2022-10-08T06:46:52.648Z,1019.59
2022-10-08T06:56:30.042Z,1019.57
2022-10-08T07:06:07.937Z,1019.6
2022-10-08T07:15:46.093Z,1019.59
2022-10-08T07:35:02.129Z,1019.54
2022-10-08T07:44:40.124Z,1019.54
2022-10-08T07:54:18.136Z,1019.51
2022-10-08T08:03:56.226Z,1019.53
2022-10-08T08:13:36.895Z,1019.63
2022-10-08T08:32:50.251Z,1019.54
2022-10-08T08:52:07.462Z,1019.67
2022-10-08T09:01:45.027Z,1019.82
2022-10-08T09:11:20.710Z,1019.92
2022-10-08T09:20:57.612Z,1019.8
2022-10-08T09:30:34.977Z,1019.88
2022-10-08T09:49:50.814Z,1019.79
2022-10-08T09:59:29.396Z,1019.84
2022-10-08T10:09:09.161Z,1019.82
2022-10-08T10:28:25.248Z,1019.92
2022-10-08T10:38:01.010Z,1020.01
2022-10-08T10:47:36.967Z,1020.02
2022-10-08T10:57:12.702Z,1020.2
2022-10-08T11:06:49.946Z,1020.26
2022-10-08T11:16:26.030Z,1020.57
2022-10-08T11:26:20.745Z,1020.75
2022-10-08T11:35:40.652Z,1020.83
2022-10-08T11:45:16.637Z,1020.87
2022-10-08T11:54:55.728Z,1021.04
2022-10-08T12:04:29.703Z,1021.05
2022-10-08T12:14:07.178Z,1021.06
2022-10-08T12:23:46.180Z,1021
2022-10-08T12:33:24.123Z,1020.95
2022-10-08T12:43:01.939Z,1021.15
2022-10-08T12:52:38.313Z,1021.22
2022-10-08T13:02:14.083Z,1021.2
2022-10-08T13:11:57.277Z,1021.1
2022-10-08T13:21:31.202Z,1021.17
2022-10-08T13:31:09.771Z,1021.08
2022-10-08T13:40:52.302Z,1021.15
2022-10-08T13:50:39.828Z,1021.16
2022-10-08T14:00:37.810Z,1020.82
2022-10-08T14:10:25.964Z,1021
2022-10-08T14:19:32.156Z,1021.12
2022-10-08T14:29:05.553Z,1021.17
2022-10-08T14:39:03.881Z,1021.08
2022-10-08T14:48:45.820Z,1021.07
2022-10-08T14:58:08.730Z,1021.17
2022-10-08T15:07:39.459Z,1021.29
2022-10-08T15:17:07.600Z,1021.42
2022-10-08T15:26:39.273Z,1021.65
2022-10-08T15:36:11.124Z,1021.78
2022-10-08T15:45:45.432Z,1021.99
2022-10-08T15:55:20.881Z,1022.12
2022-10-08T16:04:57.672Z,1022.23
2022-10-08T16:14:32.692Z,1022.34
2022-10-08T16:24:07.887Z,1022.58
2022-10-08T16:33:43.594Z,1022.86
2022-10-08T16:43:19.028Z,1023.03
2022-10-08T16:52:55.418Z,1023.29
2022-10-08T17:02:31.843Z,1023.46
2022-10-08T17:12:07.910Z,1023.62
2022-10-08T17:31:21.161Z,1023.93
2022-10-08T17:40:57.312Z,1024.08
2022-10-08T17:50:33.498Z,1024.34
2022-10-08T18:00:09.927Z,1024.43
2022-10-08T18:09:46.539Z,1024.67
2022-10-08T18:28:59.245Z,1024.95
2022-10-08T18:38:36.066Z,1025.14
2022-10-08T18:48:12.911Z,1025.29
2022-10-08T18:57:49.518Z,1025.39
2022-10-08T19:07:25.913Z,1025.54
2022-10-08T19:17:02.769Z,1025.65
2022-10-08T19:26:39.556Z,1025.68
2022-10-08T19:45:52.696Z,1026.04
2022-10-08T19:55:29.585Z,1026.05
2022-10-08T20:05:06.132Z,1026.24
2022-10-08T20:14:42.577Z,1026.44
2022-10-08T20:24:19.684Z,1026.46
2022-10-08T20:33:56.663Z,1026.54
2022-10-08T20:43:33.555Z,1026.77
2022-10-08T20:53:10.057Z,1026.89
2022-10-08T21:02:46.720Z,1026.96
2022-10-08T21:12:23.410Z,1027.06
2022-10-08T21:22:01.062Z,1027.15
2022-10-08T21:31:36.610Z,1027.22
2022-10-08T21:41:12.820Z,1027.34
2022-10-08T21:50:49.424Z,1027.31
2022-10-08T22:00:26.329Z,1027.35
2022-10-08T22:19:39.322Z,1027.6
2022-10-08T22:38:53.229Z,1027.72
2022-10-08T22:48:29.686Z,1027.74
2022-10-08T22:58:06.527Z,1027.61
2022-10-08T23:07:43.665Z,1027.78
2022-10-08T23:17:20.517Z,1027.78
2022-10-08T23:36:34.268Z,1027.92
2022-10-08T23:46:11.127Z,1028.04
2022-10-08T23:55:46.753Z,1027.99
